Time;durP1;ratioP1;P1;durP2;ratioP2;P2;SDS_P1;SDS_P2;PMS_P1;PMS_P2;Temp;Humidity;BMP_temperature;BMP_pressure;BME280_temperature;BME280_humidity;BME280_pressure;Samples;Min_cycle;Max_cycle;Signal;HPM_P1;HPM_P2
2022/04/09 00:00:17;;;;;;;9.10;1.52;;;3.90;99.90;;;;;;5021453;28;20041;-88
2022/04/09 00:02:43;;;;;;;14.15;2.10;;;3.70;99.90;;;;;;5038004;28;20052;-89
2022/04/09 00:05:11;;;;;;;15.00;1.77;;;3.70;99.90;;;;;;5021096;28;20399;-90
2022/04/09 00:07:37;;;;;;;13.40;2.03;;;3.70;99.90;;;;;;5037859;28;20045;-90
2022/04/09 00:10:08;;;;;;;10.98;1.77;;;3.90;99.90;;;;;;5037612;28;20037;-89
2022/04/09 00:12:35;;;;;;;16.27;1.90;;;3.60;99.90;;;;;;5054803;28;20053;-90
2022/04/09 00:15:01;;;;;;;11.27;1.90;;;3.80;99.90;;;;;;5020552;28;20545;-90
2022/04/09 00:17:27;;;;;;;12.57;1.83;;;3.40;99.90;;;;;;5021326;28;20044;-90
2022/04/09 00:19:53;;;;;;;16.83;2.08;;;3.40;99.90;;;;;;5037543;28;20037;-90
2022/04/09 00:22:19;;;;;;;12.10;2.20;;;3.30;99.90;;;;;;5037662;28;20052;-89
2022/04/09 00:24:45;;;;;;;14.43;2.00;;;3.20;99.90;;;;;;5037231;28;20056;-91
2022/04/09 00:27:12;;;;;;;12.60;2.08;;;3.20;99.90;;;;;;5037780;28;20056;-90
2022/04/09 00:29:38;;;;;;;14.65;2.00;;;3.20;99.90;;;;;;5037243;28;20045;-90
2022/04/09 00:32:04;;;;;;;15.18;2.10;;;3.20;99.90;;;;;;5021053;28;20621;-90
2022/04/09 00:34:30;;;;;;;19.70;2.40;;;3.10;99.90;;;;;;5037100;28;20053;-91
2022/04/09 00:36:55;;;;;;;24.95;2.90;;;3.20;99.90;;;;;;5021039;28;20049;-90
2022/04/09 00:39:21;;;;;;;15.75;1.63;;;3.10;99.90;;;;;;5037133;28;20052;-90
2022/04/09 00:41:47;;;;;;;14.00;2.25;;;3.10;99.90;;;;;;5020749;28;20064;-90
2022/04/09 00:44:17;;;;;;;11.68;1.88;;;3.00;99.90;;;;;;5037458;28;20033;-91
2022/04/09 00:46:43;;;;;;;11.95;2.40;;;3.00;99.90;;;;;;5037049;28;20053;-90
2022/04/09 00:49:09;;;;;;;12.82;2.17;;;3.00;99.90;;;;;;5037058;28;20528;-91
2022/04/09 00:51:39;;;;;;;13.32;1.98;;;3.00;99.90;;;;;;5036842;28;20076;-90
2022/04/09 00:54:05;;;;;;;15.05;2.00;;;3.00;99.90;;;;;;5036692;28;20560;-90
2022/04/09 00:56:33;;;;;;;12.13;2.05;;;3.00;99.90;;;;;;5020272;28;20131;-88
2022/04/09 00:59:02;;;;;;;9.40;1.63;;;3.20;99.90;;;;;;5037046;28;20044;-91
2022/04/09 01:01:31;;;;;;;9.57;1.90;;;3.60;99.90;;;;;;5020662;28;20091;-91
2022/04/09 01:03:58;;;;;;;9.23;1.60;;;3.40;99.90;;;;;;5036497;28;20384;-90
2022/04/09 01:06:24;;;;;;;15.95;2.10;;;3.50;99.90;;;;;;5036769;28;20106;-90
2022/04/09 01:08:51;;;;;;;10.63;1.55;;;3.60;99.90;;;;;;5036321;28;20482;-89
2022/04/09 01:11:17;;;;;;;12.80;1.75;;;3.60;99.90;;;;;;5020088;28;20041;-90
2022/04/09 01:13:46;;;;;;;8.55;1.70;;;3.50;99.90;;;;;;5036439;28;20051;-89
2022/04/09 01:16:12;;;;;;;11.05;2.00;;;3.50;99.90;;;;;;5036319;28;20128;-90
2022/04/09 01:18:41;;;;;;;8.18;1.83;;;3.60;99.90;;;;;;5036165;28;20049;-90
2022/04/09 01:21:06;;;;;;;10.05;2.47;;;3.40;99.90;;;;;;5036435;28;20049;-89
2022/04/09 01:23:32;;;;;;;9.40;1.63;;;3.30;99.90;;;;;;5036208;28;20398;-91
2022/04/09 01:26:00;;;;;;;7.47;1.50;;;3.30;99.90;;;;;;5036331;28;20052;-89
2022/04/09 01:28:26;;;;;;;14.13;1.45;;;3.30;99.90;;;;;;5036393;28;20064;-90
2022/04/09 01:30:53;;;;;;;12.07;1.58;;;3.50;99.90;;;;;;5036244;28;20057;-90
2022/04/09 01:33:20;;;;;;;15.13;1.67;;;3.30;99.90;;;;;;5019653;28;20045;-90
2022/04/09 01:35:46;;;;;;;10.80;1.33;;;3.30;99.90;;;;;;5036020;28;20045;-89
2022/04/09 01:38:13;;;;;;;4.85;1.05;;;3.30;99.90;;;;;;5019294;28;20049;-88
2022/04/09 01:40:39;;;;;;;8.40;1.40;;;3.30;99.90;;;;;;5036308;28;20053;-90
2022/04/09 01:43:05;;;;;;;10.18;1.42;;;3.30;99.90;;;;;;5036049;28;20049;-91
2022/04/09 01:45:31;;;;;;;8.82;1.50;;;3.30;99.90;;;;;;5019406;28;20060;-90
2022/04/09 01:47:58;;;;;;;10.23;1.35;;;3.30;99.90;;;;;;5035703;28;20468;-90
2022/04/09 01:50:26;;;;;;;8.35;1.50;;;3.20;99.90;;;;;;5035703;28;20132;-91
2022/04/09 01:52:52;;;;;;;11.23;1.30;;;3.30;99.90;;;;;;5035805;28;20085;-90
2022/04/09 01:55:18;;;;;;;4.80;1.13;;;3.30;99.90;;;;;;5019365;28;20045;-89
2022/04/09 01:57:44;;;;;;;8.65;1.30;;;3.30;99.90;;;;;;5019834;28;20049;-90
2022/04/09 02:00:12;;;;;;;7.72;1.10;;;3.30;99.90;;;;;;5033439;28;20100;-90
2022/04/09 02:02:38;;;;;;;16.85;1.80;;;3.40;99.90;;;;;;5015050;28;20411;-90
2022/04/09 02:05:06;;;;;;;9.50;1.33;;;3.50;99.90;;;;;;5015542;28;20462;-90
2022/04/09 02:07:32;;;;;;;9.07;1.30;;;3.50;99.90;;;;;;4999151;28;20128;-90
2022/04/09 02:09:58;;;;;;;8.95;1.42;;;3.50;99.90;;;;;;5015710;28;20132;-90
2022/04/09 02:12:23;;;;;;;11.63;1.20;;;3.40;99.90;;;;;;5016028;28;20050;-90
2022/04/09 02:14:49;;;;;;;6.70;1.50;;;3.40;99.90;;;;;;4999315;28;20052;-90
2022/04/09 02:17:15;;;;;;;14.75;1.90;;;3.30;99.90;;;;;;4999213;28;20103;-90
2022/04/09 02:19:41;;;;;;;8.82;1.48;;;3.30;99.90;;;;;;5016006;28;20132;-91
2022/04/09 02:22:07;;;;;;;9.93;1.55;;;3.20;99.90;;;;;;4999282;28;20486;-90
2022/04/09 02:24:32;;;;;;;9.10;1.10;;;3.20;99.90;;;;;;5015572;28;20053;-89
2022/04/09 02:26:58;;;;;;;6.65;1.27;;;3.20;99.90;;;;;;5015388;28;20049;-89
2022/04/09 02:29:24;;;;;;;9.57;1.73;;;3.30;99.90;;;;;;5015622;28;20076;-89
2022/04/09 02:31:50;;;;;;;8.57;1.50;;;3.30;99.90;;;;;;5015584;28;20132;-89
2022/04/09 02:34:16;;;;;;;6.90;0.93;;;3.30;99.90;;;;;;5015426;28;20498;-89
2022/04/09 02:36:41;;;;;;;7.55;1.58;;;3.30;99.90;;;;;;4999023;28;20045;-91
2022/04/09 02:39:07;;;;;;;7.78;1.10;;;3.30;99.90;;;;;;5015357;28;20072;-91
2022/04/09 02:41:33;;;;;;;5.63;1.02;;;3.40;99.90;;;;;;5031946;28;20084;-90
2022/04/09 02:43:59;;;;;;;12.38;1.17;;;3.40;99.90;;;;;;5015532;28;20060;-90
2022/04/09 02:46:28;;;;;;;6.15;1.30;;;3.40;99.90;;;;;;5015499;28;20156;-90
2022/04/09 02:48:53;;;;;;;12.52;1.02;;;3.40;99.90;;;;;;4999167;28;20444;-90
2022/04/09 02:51:19;;;;;;;9.52;1.20;;;3.40;99.90;;;;;;5015529;28;20052;-91
2022/04/09 02:53:47;;;;;;;6.00;1.15;;;3.50;99.90;;;;;;4999301;28;20523;-91
2022/04/09 02:56:13;;;;;;;3.90;1.13;;;3.30;99.90;;;;;;5018081;28;20060;-91
2022/04/09 02:58:39;;;;;;;8.65;1.23;;;3.20;99.90;;;;;;5035188;28;20095;-91
2022/04/09 03:01:05;;;;;;;10.32;1.27;;;3.20;99.90;;;;;;5035511;28;20483;-91
2022/04/09 03:03:31;;;;;;;12.27;1.00;;;3.10;99.90;;;;;;5051773;28;20049;-90
2022/04/09 03:05:56;;;;;;;11.68;1.38;;;3.10;99.90;;;;;;5034920;28;20071;-90
2022/04/09 03:08:22;;;;;;;8.93;1.20;;;3.00;99.90;;;;;;5035078;28;20037;-90
2022/04/09 03:10:48;;;;;;;5.43;1.50;;;2.90;99.90;;;;;;5018493;28;20134;-89
2022/04/09 03:13:14;;;;;;;6.57;0.88;;;2.90;99.90;;;;;;5051917;28;20074;-91
2022/04/09 03:15:41;;;;;;;11.25;1.67;;;2.90;99.90;;;;;;5038864;28;20049;-91
2022/04/09 03:18:09;;;;;;;13.10;1.70;;;3.00;99.90;;;;;;5055760;28;20052;-90
2022/04/09 03:20:34;;;;;;;8.52;1.40;;;3.10;99.90;;;;;;5055680;28;20053;-93
2022/04/09 03:23:00;;;;;;;12.40;1.20;;;3.20;99.90;;;;;;5022264;28;20498;-92
2022/04/09 03:25:26;;;;;;;8.27;1.60;;;3.30;99.90;;;;;;5022522;28;20055;-92
2022/04/09 03:27:51;;;;;;;7.32;1.50;;;3.40;99.90;;;;;;5023091;28;20063;-91
2022/04/09 03:30:17;;;;;;;11.20;1.52;;;3.30;99.90;;;;;;5022512;28;20128;-92
2022/04/09 03:32:43;;;;;;;7.63;1.27;;;3.20;99.90;;;;;;5039115;28;20052;-91
2022/04/09 03:35:10;;;;;;;9.48;1.33;;;3.10;99.90;;;;;;5021971;28;20091;-92
2022/04/09 03:37:37;;;;;;;8.25;1.05;;;3.00;99.90;;;;;;5038962;28;20049;-92
2022/04/09 03:40:04;;;;;;;10.63;2.15;;;2.90;99.90;;;;;;5038729;28;20041;-93
2022/04/09 03:42:30;;;;;;;10.02;1.23;;;2.70;99.90;;;;;;5039027;28;20089;-91
2022/04/09 03:44:56;;;;;;;9.80;1.75;;;2.60;99.90;;;;;;5038920;28;20407;-92
2022/04/09 03:47:21;;;;;;;6.35;1.17;;;2.50;99.90;;;;;;5038656;28;20049;-91
2022/04/09 03:49:47;;;;;;;14.18;2.10;;;2.40;99.90;;;;;;5038781;28;20041;-92
2022/04/09 03:52:13;;;;;;;8.63;1.73;;;2.50;99.90;;;;;;5038565;28;20482;-91
2022/04/09 03:54:39;;;;;;;11.80;1.30;;;2.50;99.90;;;;;;5021776;28;20510;-91
2022/04/09 03:57:06;;;;;;;3.88;1.10;;;2.20;99.90;;;;;;5038503;28;20052;-91
2022/04/09 03:59:31;;;;;;;8.90;1.58;;;2.50;99.90;;;;;;5038750;28;20143;-91
2022/04/09 04:01:57;;;;;;;7.45;1.08;;;2.50;99.90;;;;;;5022025;28;20544;-91
2022/04/09 04:04:23;;;;;;;8.43;1.10;;;2.60;99.90;;;;;;5038465;28;20084;-92
2022/04/09 04:06:49;;;;;;;9.48;1.02;;;2.50;99.90;;;;;;5021770;28;20099;-91
2022/04/09 04:09:16;;;;;;;10.32;1.30;;;2.40;99.90;;;;;;5038166;28;20045;-92
2022/04/09 04:11:45;;;;;;;9.32;1.27;;;2.30;99.90;;;;;;5021715;28;20041;-92
2022/04/09 04:14:12;;;;;;;5.43;1.30;;;2.30;99.90;;;;;;5021888;28;20049;-92
2022/04/09 04:16:38;;;;;;;12.13;0.93;;;2.30;99.90;;;;;;5021838;28;20057;-92
2022/04/09 04:19:04;;;;;;;7.22;1.38;;;2.30;99.90;;;;;;5038190;28;20099;-92
2022/04/09 04:21:30;;;;;;;10.10;1.10;;;2.30;99.90;;;;;;5038091;28;20052;-92
2022/04/09 04:23:56;;;;;;;8.52;1.15;;;2.20;99.90;;;;;;5037958;28;20045;-92
2022/04/09 04:26:21;;;;;;;7.35;1.40;;;2.30;99.90;;;;;;5019982;28;20064;-91
2022/04/09 04:28:48;;;;;;;6.88;1.15;;;2.20;99.90;;;;;;5021834;28;20067;-92
2022/04/09 04:31:18;;;;;;;8.95;1.88;;;2.20;99.90;;;;;;5021620;28;20057;-92
2022/04/09 04:33:44;;;;;;;8.57;1.38;;;2.20;99.90;;;;;;5021479;28;20037;-92
2022/04/09 04:36:10;;;;;;;11.57;1.40;;;2.10;99.90;;;;;;5021245;28;20490;-92
2022/04/09 04:38:36;;;;;;;10.40;1.42;;;2.40;99.90;;;;;;5037317;28;20045;-92
2022/04/09 04:41:04;;;;;;;8.13;1.65;;;2.20;99.90;;;;;;5053984;28;20045;-92
2022/04/09 04:43:30;;;;;;;10.82;1.48;;;2.20;99.90;;;;;;5053824;28;20527;-91
2022/04/09 04:45:56;;;;;;;8.50;1.48;;;2.20;99.90;;;;;;5021030;28;20053;-91
2022/04/09 04:48:21;;;;;;;15.93;1.63;;;2.30;99.90;;;;;;5020725;28;20053;-91
2022/04/09 04:50:47;;;;;;;11.60;1.73;;;2.30;99.90;;;;;;5021156;28;20513;-92
2022/04/09 04:53:13;;;;;;;8.65;1.83;;;2.40;99.90;;;;;;5037288;28;20045;-92
2022/04/09 04:55:39;;;;;;;7.60;1.63;;;2.40;99.90;;;;;;5020316;28;20422;-91
2022/04/09 04:58:05;;;;;;;11.23;1.70;;;2.50;99.90;;;;;;5053887;28;20397;-92
2022/04/09 05:00:30;;;;;;;12.10;1.45;;;2.50;99.90;;;;;;5020913;28;20045;-91
2022/04/09 05:02:58;;;;;;;10.20;1.40;;;2.60;99.90;;;;;;5020592;28;20166;-91
2022/04/09 05:05:23;;;;;;;7.10;1.30;;;2.60;99.90;;;;;;5020543;28;20484;-91
2022/04/09 05:07:51;;;;;;;9.00;1.40;;;2.70;99.90;;;;;;5037048;28;20144;-90
2022/04/09 05:10:23;;;;;;;12.20;1.52;;;2.70;99.90;;;;;;5036646;28;20131;-91
2022/04/09 05:12:49;;;;;;;10.63;1.30;;;2.80;99.90;;;;;;5036978;28;20140;-91
2022/04/09 05:15:16;;;;;;;6.45;1.10;;;2.80;99.90;;;;;;5020600;28;20041;-91
2022/04/09 05:17:42;;;;;;;5.85;1.23;;;2.80;99.90;;;;;;5036929;28;20037;-91
2022/04/09 05:20:11;;;;;;;7.75;1.70;;;2.80;99.90;;;;;;5036968;28;20044;-92
2022/04/09 05:22:39;;;;;;;8.45;1.40;;;2.80;99.90;;;;;;5036571;28;20044;-92
2022/04/09 05:25:05;;;;;;;11.18;1.17;;;2.90;99.90;;;;;;5020237;28;20045;-91
2022/04/09 05:27:31;;;;;;;7.65;0.93;;;2.90;99.90;;;;;;5036872;28;20393;-91
2022/04/09 05:29:57;;;;;;;6.47;1.15;;;3.10;99.90;;;;;;5019392;28;20053;-90
2022/04/09 05:32:23;;;;;;;7.95;1.83;;;2.80;99.90;;;;;;5036671;28;20076;-91
2022/04/09 05:34:49;;;;;;;8.25;0.93;;;2.80;99.90;;;;;;5036150;28;20585;-90
2022/04/09 05:37:15;;;;;;;6.85;1.10;;;2.70;99.90;;;;;;5035411;28;20135;-91
2022/04/09 05:39:42;;;;;;;7.03;1.33;;;2.80;99.90;;;;;;5019751;28;20080;-91
2022/04/09 05:42:08;;;;;;;8.10;1.05;;;2.90;99.90;;;;;;5036607;28;20501;-91
2022/04/09 05:44:33;;;;;;;7.53;1.42;;;2.90;99.90;;;;;;5020046;28;20076;-91
2022/04/09 05:47:00;;;;;;;4.75;0.93;;;3.00;99.90;;;;;;5052755;28;20044;-91
2022/04/09 05:49:26;;;;;;;11.13;1.50;;;3.40;99.90;;;;;;5020091;28;20530;-91
2022/04/09 05:51:52;;;;;;;9.13;1.40;;;3.10;99.90;;;;;;5036180;28;20075;-91
2022/04/09 05:54:18;;;;;;;8.23;1.48;;;3.20;99.90;;;;;;5035815;28;20051;-91
2022/04/09 05:56:44;;;;;;;17.30;1.77;;;3.20;99.90;;;;;;5030659;28;20069;-91
2022/04/09 05:59:09;;;;;;;10.70;1.80;;;3.40;99.90;;;;;;5016701;28;20095;-91
2022/04/09 06:01:35;;;;;;;10.60;1.30;;;3.60;99.90;;;;;;5016597;28;20083;-92
2022/04/09 06:04:01;;;;;;;10.05;1.30;;;3.90;99.90;;;;;;5000148;28;20136;-92
2022/04/09 06:06:27;;;;;;;8.10;1.45;;;4.00;99.90;;;;;;5016102;28;20112;-91
2022/04/09 06:08:54;;;;;;;11.43;1.48;;;4.30;99.90;;;;;;4999999;28;20056;-91
2022/04/09 06:11:19;;;;;;;8.05;1.20;;;4.00;99.90;;;;;;5015954;28;20095;-91
2022/04/09 06:13:45;;;;;;;14.38;1.80;;;4.00;99.90;;;;;;5016810;28;20046;-91
2022/04/09 06:16:11;;;;;;;7.78;1.55;;;4.00;99.90;;;;;;5016296;28;20104;-91
2022/04/09 06:18:38;;;;;;;14.23;1.73;;;4.00;99.90;;;;;;5000473;28;20049;-92
2022/04/09 06:21:08;;;;;;;9.27;1.80;;;4.10;99.90;;;;;;5016272;28;20037;-91
2022/04/09 06:23:34;;;;;;;15.13;1.65;;;4.30;99.90;;;;;;5015998;28;20096;-91
2022/04/09 06:26:00;;;;;;;13.05;1.92;;;4.50;99.90;;;;;;5016146;28;20131;-90
2022/04/09 06:28:26;;;;;;;7.97;1.55;;;4.50;99.90;;;;;;5033229;28;20543;-90
2022/04/09 06:30:52;;;;;;;9.13;1.35;;;4.50;99.90;;;;;;5015912;28;20176;-90
2022/04/09 06:33:18;;;;;;;10.20;1.52;;;4.50;99.90;;;;;;5033131;28;20396;-90
2022/04/09 06:35:45;;;;;;;8.63;1.80;;;4.60;99.90;;;;;;5003625;28;20041;-93
2022/04/09 06:38:11;;;;;;;9.75;1.25;;;4.60;99.90;;;;;;5022698;28;20049;-89
2022/04/09 06:40:36;;;;;;;9.93;1.35;;;4.70;99.90;;;;;;5005034;28;20121;-90
2022/04/09 06:43:02;;;;;;;12.88;1.73;;;5.10;99.90;;;;;;5038831;28;20053;-89
2022/04/09 06:45:28;;;;;;;6.70;1.60;;;5.00;99.90;;;;;;5023763;28;20137;-90
2022/04/09 06:47:54;;;;;;;9.38;1.42;;;5.00;99.90;;;;;;5022524;28;20037;-90
2022/04/09 06:50:20;;;;;;;8.20;1.30;;;5.10;99.90;;;;;;5019156;28;20053;-90
2022/04/09 06:52:48;;;;;;;11.50;1.65;;;5.50;99.90;;;;;;5007262;28;20132;-89
2022/04/09 06:55:13;;;;;;;9.35;1.10;;;5.20;99.90;;;;;;5024863;28;20058;-90
2022/04/09 06:57:41;;;;;;;12.23;0.98;;;5.30;99.90;;;;;;5036404;28;20148;-92
2022/04/09 07:00:11;;;;;;;7.30;1.33;;;5.50;99.90;;;;;;5040870;28;20052;-88
2022/04/09 07:02:38;;;;;;;10.73;1.67;;;5.60;99.90;;;;;;5020419;28;20041;-91
2022/04/09 07:05:04;;;;;;;11.25;1.50;;;5.70;99.90;;;;;;5052222;28;20093;-89
2022/04/09 07:07:30;;;;;;;7.13;1.25;;;6.00;99.90;;;;;;5035232;28;20111;-88
2022/04/09 07:10:06;;;;;;;5.72;1.45;;;6.30;99.90;;;;;;5018513;28;20041;-88
2022/04/09 07:12:32;;;;;;;9.80;1.23;;;6.40;99.90;;;;;;5034653;28;20053;-90
2022/04/09 07:14:58;;;;;;;12.48;1.50;;;6.50;99.90;;;;;;5036921;28;20048;-90
2022/04/09 07:17:29;;;;;;;8.10;1.38;;;6.50;99.90;;;;;;5018219;28;20426;-89
2022/04/09 07:19:58;;;;;;;7.28;1.55;;;6.40;99.90;;;;;;5018621;28;20052;-90
2022/04/09 07:22:25;;;;;;;11.93;1.80;;;6.40;99.90;;;;;;5018095;28;20056;-87
2022/04/09 07:24:50;;;;;;;10.80;1.80;;;6.50;99.90;;;;;;5051280;28;20049;-89
2022/04/09 07:27:16;;;;;;;13.68;1.70;;;6.70;99.90;;;;;;5034822;28;20052;-89
2022/04/09 07:29:42;;;;;;;6.57;1.00;;;6.90;99.90;;;;;;5018512;28;20143;-89
2022/04/09 07:32:08;;;;;;;8.52;2.05;;;7.20;99.90;;;;;;5035199;28;20040;-88
2022/04/09 07:34:33;;;;;;;11.15;1.50;;;7.40;99.90;;;;;;5034952;28;20041;-89
2022/04/09 07:36:59;;;;;;;9.40;1.30;;;7.60;99.90;;;;;;5017941;28;20207;-88
2022/04/09 07:39:25;;;;;;;9.05;1.38;;;7.80;99.90;;;;;;5051229;28;20049;-90
2022/04/09 07:41:51;;;;;;;10.15;1.70;;;7.70;99.90;;;;;;5034927;28;20128;-91
2022/04/09 07:44:16;;;;;;;8.70;1.30;;;7.70;99.90;;;;;;5018308;28;20049;-89
2022/04/09 07:46:42;;;;;;;10.40;1.45;;;7.60;99.90;;;;;;5026642;28;20487;-90
2022/04/09 07:49:07;;;;;;;12.27;1.73;;;7.50;99.90;;;;;;5027710;28;20057;-90
2022/04/09 07:51:33;;;;;;;10.23;2.03;;;7.50;99.90;;;;;;5049834;28;20048;-88
2022/04/09 07:53:59;;;;;;;5.13;1.20;;;7.50;99.90;;;;;;5052557;28;20053;-88
2022/04/09 07:56:24;;;;;;;9.68;1.95;;;7.50;99.90;;;;;;5051636;28;20041;-90
2022/04/09 07:58:50;;;;;;;9.32;1.20;;;7.40;99.90;;;;;;5051369;28;20060;-88
2022/04/09 08:01:16;;;;;;;10.75;1.50;;;7.40;99.90;;;;;;5036453;28;20045;-90
2022/04/09 08:03:41;;;;;;;7.65;1.05;;;7.60;99.90;;;;;;5021319;28;20143;-89
2022/04/09 08:06:07;;;;;;;7.53;0.98;;;7.50;99.90;;;;;;5038057;28;20072;-90
2022/04/09 08:08:33;;;;;;;9.40;1.40;;;7.60;99.90;;;;;;5022389;28;20052;-88
2022/04/09 08:10:59;;;;;;;5.68;1.15;;;7.70;99.90;;;;;;5022148;28;20060;-91
2022/04/09 08:13:24;;;;;;;5.22;0.95;;;7.80;99.90;;;;;;5038342;28;20087;-89
2022/04/09 08:15:50;;;;;;;6.68;1.40;;;8.10;99.90;;;;;;5037866;28;20048;-90
2022/04/09 08:18:16;;;;;;;6.68;1.30;;;8.20;99.90;;;;;;5037893;28;20041;-89
2022/04/09 08:20:42;;;;;;;7.05;1.00;;;7.90;99.90;;;;;;5038669;28;20387;-88
2022/04/09 08:23:08;;;;;;;5.25;1.10;;;8.20;99.90;;;;;;5039193;28;20064;-89
2022/04/09 08:25:34;;;;;;;6.90;0.80;;;8.10;99.90;;;;;;5038101;28;20041;-91
2022/04/09 08:28:00;;;;;;;10.85;1.13;;;8.30;99.90;;;;;;5021154;28;20167;-88
2022/04/09 08:30:26;;;;;;;8.05;1.35;;;8.60;99.90;;;;;;5021329;28;20124;-90
2022/04/09 08:32:52;;;;;;;11.30;1.20;;;9.00;99.90;;;;;;5037803;28;20060;-88
2022/04/09 08:35:19;;;;;;;5.78;1.05;;;9.00;99.90;;;;;;5037752;28;20080;-91
2022/04/09 08:37:55;;;;;;;10.27;1.17;;;9.00;99.90;;;;;;5037731;28;20040;-90
2022/04/09 08:40:22;;;;;;;4.18;1.05;;;9.60;99.90;;;;;;5021454;28;20059;-91
2022/04/09 08:42:48;;;;;;;9.98;1.20;;;9.90;99.90;;;;;;5021210;28;20133;-88
2022/04/09 08:45:15;;;;;;;3.65;0.82;;;10.50;99.90;;;;;;5020413;28;20052;-88
2022/04/09 08:47:45;;;;;;;5.22;0.88;;;10.70;99.90;;;;;;5054702;28;20095;-87
2022/04/09 08:50:12;;;;;;;7.28;1.13;;;10.80;99.90;;;;;;5020806;28;20041;-89
2022/04/09 08:52:40;;;;;;;5.43;0.80;;;11.30;99.90;;;;;;5020772;28;20552;-87
2022/04/09 08:55:07;;;;;;;4.60;0.80;;;11.50;99.90;;;;;;5036715;28;20041;-91
2022/04/09 08:57:36;;;;;;;4.85;1.05;;;10.90;99.90;;;;;;5020670;28;20057;-91
2022/04/09 09:00:13;;;;;;;4.53;1.13;;;10.40;99.90;;;;;;5053749;28;20051;-92
2022/04/09 09:02:53;;;;;;;5.78;0.90;;;9.80;99.90;;;;;;5020344;28;20441;-87
2022/04/09 09:05:42;;;;;;;5.10;0.95;;;9.20;99.90;;;;;;5053013;28;20190;-90
2022/04/09 09:08:12;;;;;;;4.88;0.93;;;8.70;99.90;;;;;;5038098;28;20053;-87
2022/04/09 09:10:39;;;;;;;5.25;0.90;;;8.20;99.90;;;;;;5038532;28;20102;-89
2022/04/09 09:13:11;;;;;;;6.25;1.10;;;7.80;99.90;;;;;;5036782;28;20102;-92
2022/04/09 09:15:53;;;;;;;;;;;7.60;99.90;;;;;;5037424;28;20398;-91
2022/04/09 09:18:20;;;;;;;5.35;1.13;;;8.90;99.90;;;;;;5036626;28;20374;-90
2022/04/09 09:20:56;;;;;;;6.85;1.13;;;10.40;99.90;;;;;;5020378;28;20067;-91
2022/04/09 09:23:33;;;;;;;7.07;0.85;;;12.00;99.90;;;;;;5036537;28;20048;-91
2022/04/09 09:26:01;;;;;;;5.80;1.00;;;13.10;99.90;;;;;;5037101;28;20438;-93
2022/04/09 09:28:28;;;;;;;3.83;1.05;;;14.00;99.90;;;;;;5035882;28;20407;-91
2022/04/09 09:30:55;;;;;;;5.63;1.20;;;14.60;99.90;;;;;;5020162;28;20505;-92
2022/04/09 09:33:21;;;;;;;4.97;0.85;;;15.10;99.90;;;;;;5053949;28;20131;-89
2022/04/09 09:35:55;;;;;;;5.78;1.02;;;15.60;96.60;;;;;;5019683;28;20127;-88
2022/04/09 09:38:28;;;;;;;5.25;1.23;;;15.50;91.60;;;;;;5036488;28;20049;-87
2022/04/09 09:40:56;;;;;;;5.97;1.08;;;15.60;84.00;;;;;;5036694;28;20056;-89
2022/04/09 09:43:23;;;;;;;5.68;0.90;;;15.70;85.40;;;;;;5035804;28;20128;-91
2022/04/09 09:45:50;;;;;;;5.10;0.90;;;14.90;89.70;;;;;;5035902;28;20048;-87
2022/04/09 09:48:23;;;;;;;4.43;0.88;;;13.70;94.80;;;;;;5036112;28;20131;-91
2022/04/09 09:50:50;;;;;;;4.70;0.98;;;13.80;93.80;;;;;;5020271;28;20106;-89
2022/04/09 09:53:18;;;;;;;2.90;0.88;;;14.60;91.10;;;;;;5036117;28;20045;-88
2022/04/09 09:55:44;;;;;;;4.80;1.00;;;14.90;85.80;;;;;;5035863;28;20418;-88
2022/04/09 09:58:17;;;;;;;4.60;1.02;;;15.40;83.80;;;;;;5036315;28;20092;-88
2022/04/09 10:00:44;;;;;;;4.10;0.82;;;15.90;73.60;;;;;;5042089;28;20499;-91
2022/04/09 10:03:13;;;;;;;7.97;1.10;;;16.20;76.50;;;;;;5023885;28;20045;-92
2022/04/09 10:05:40;;;;;;;5.13;0.90;;;16.20;74.40;;;;;;5040083;28;20060;-88
2022/04/09 10:08:07;;;;;;;10.55;1.45;;;15.00;88.80;;;;;;5042873;28;20102;-93
2022/04/09 10:10:37;;;;;;;6.00;1.40;;;12.70;99.90;;;;;;5044329;28;20049;-93
2022/04/09 10:13:07;;;;;;;8.70;1.70;;;10.80;99.90;;;;;;5025709;28;20053;-93
2022/04/09 10:15:33;;;;;;;5.22;1.10;;;9.70;99.90;;;;;;5027536;28;20081;-94
2022/04/09 10:18:01;;;;;;;5.97;1.48;;;10.30;99.90;;;;;;5043852;28;20064;-93
2022/04/09 10:20:28;;;;;;;6.93;0.98;;;11.30;99.90;;;;;;5042567;28;20084;-91
2022/04/09 10:22:58;;;;;;;4.85;0.90;;;11.40;99.90;;;;;;5024358;28;20049;-90
2022/04/09 10:25:27;;;;;;;10.80;1.40;;;11.10;99.90;;;;;;5023029;28;20053;-89
2022/04/09 10:28:03;;;;;;;10.02;1.30;;;10.60;99.90;;;;;;5053779;28;20049;-94
2022/04/09 10:30:37;;;;;;;9.73;1.30;;;10.00;99.90;;;;;;5021614;28;20135;-92
2022/04/09 10:33:03;;;;;;;8.35;1.23;;;9.90;99.90;;;;;;5037023;28;20044;-89
2022/04/09 10:35:39;;;;;;;10.90;1.67;;;10.50;99.90;;;;;;5036004;28;20053;-90
2022/04/09 10:38:11;;;;;;;13.63;1.90;;;10.40;99.90;;;;;;5035708;28;20056;-88
2022/04/09 10:40:56;;;;;;;11.65;1.45;;;10.40;99.90;;;;;;5035587;28;20048;-87
2022/04/09 10:43:21;;;;;;;15.32;1.88;;;10.10;99.90;;;;;;5018647;28;20060;-89
2022/04/09 10:46:02;;;;;;;8.55;1.73;;;9.60;99.90;;;;;;5035740;28;20418;-87
2022/04/09 10:48:29;;;;;;;3.60;1.52;;;9.50;99.90;;;;;;5017824;28;20057;-88
2022/04/09 10:51:02;;;;;;;5.40;1.67;;;10.60;99.90;;;;;;5018475;28;20037;-90
2022/04/09 10:53:30;;;;;;;11.23;4.47;;;11.90;99.90;;;;;;5036114;28;20410;-88
2022/04/09 10:56:24;;;;;;;4.43;1.45;;;11.30;99.90;;;;;;5034922;28;20059;-91
2022/04/09 10:59:08;;;;;;;8.68;1.33;;;10.30;99.90;;;;;;5018881;28;20052;-93
2022/04/09 11:01:46;;;;;;;3.88;1.05;;;9.00;99.90;;;;;;5020030;28;20080;-91
2022/04/09 11:04:27;;;;;;;7.55;1.13;;;8.30;99.90;;;;;;5019486;28;20064;-87
2022/04/09 11:07:08;;;;;;;6.00;0.90;;;8.30;99.90;;;;;;5019953;28;20087;-93
2022/04/09 11:09:58;;;;;;;3.65;0.80;;;8.80;99.90;;;;;;5020765;28;20060;-92
2022/04/09 11:12:50;;;;;;;4.10;0.80;;;9.30;99.90;;;;;;5019433;28;20084;-91
2022/04/09 11:15:17;;;;;;;5.25;0.68;;;10.20;99.90;;;;;;5015233;28;20049;-91
2022/04/09 11:17:45;;;;;;;4.93;1.05;;;10.00;99.90;;;;;;5021635;28;20044;-90
2022/04/09 11:20:12;;;;;;;6.57;0.90;;;9.80;99.90;;;;;;5058140;28;20136;-91
2022/04/09 11:22:39;;;;;;;6.57;1.00;;;9.20;99.90;;;;;;5059393;28;20021;-92
2022/04/09 11:25:07;;;;;;;5.80;1.17;;;8.40;99.90;;;;;;5039712;28;20401;-91
2022/04/09 11:27:33;;;;;;;4.55;0.85;;;8.00;99.90;;;;;;5036661;28;20045;-92
2022/04/09 11:30:00;;;;;;;4.28;0.85;;;7.90;99.90;;;;;;5035478;28;20055;-93
2022/04/09 11:32:27;;;;;;;6.65;1.17;;;7.40;99.90;;;;;;5019351;28;20541;-92
2022/04/09 11:34:58;;;;;;;5.47;0.93;;;7.40;99.90;;;;;;5035966;28;20053;-92
2022/04/09 11:37:29;;;;;;;;;;;8.50;99.90;;;;;;5023141;28;20059;-91
2022/04/09 11:39:57;;;;;;;5.78;0.95;;;10.10;99.90;;;;;;5056437;28;19920;-90
2022/04/09 11:42:22;;;;;;;4.30;1.08;;;11.20;99.90;;;;;;5038597;28;20186;-89
2022/04/09 11:44:48;;;;;;;3.72;0.80;;;11.70;99.90;;;;;;5054923;28;20327;-88
2022/04/09 11:47:24;;;;;;;1.48;0.40;;;11.00;99.90;;;;;;5054916;28;20053;-90
2022/04/09 11:49:52;;;;;;;2.90;0.47;;;9.60;99.90;;;;;;5022202;28;20048;-89
2022/04/09 11:52:28;;;;;;;3.95;0.80;;;8.70;99.90;;;;;;5038586;28;20045;-91
2022/04/09 11:54:55;;;;;;;3.47;0.65;;;8.00;99.90;;;;;;5038317;28;20037;-90
2022/04/09 11:57:22;;;;;;;2.72;0.82;;;7.80;99.90;;;;;;5037976;28;20063;-89
2022/04/09 11:59:55;;;;;;;3.45;0.60;;;8.00;99.90;;;;;;5037921;28;20430;-90
2022/04/09 12:02:25;;;;;;;3.88;0.70;;;8.50;99.90;;;;;;5038514;28;20550;-90
2022/04/09 12:04:53;;;;;;;4.38;0.70;;;8.40;99.90;;;;;;5038236;28;20049;-90
2022/04/09 12:07:20;;;;;;;2.58;0.70;;;8.00;99.90;;;;;;5021869;28;20103;-88
2022/04/09 12:09:45;;;;;;;2.17;0.63;;;8.10;99.90;;;;;;5021679;28;20092;-88
2022/04/09 12:12:12;;;;;;;4.75;1.02;;;8.50;99.90;;;;;;5020591;28;20117;-90
2022/04/09 12:14:40;;;;;;;4.80;0.75;;;8.50;99.90;;;;;;5054366;28;20410;-90
2022/04/09 12:17:13;;;;;;;3.97;0.90;;;8.30;99.90;;;;;;5055662;28;20120;-89
2022/04/09 12:19:45;;;;;;;3.60;0.55;;;8.10;99.90;;;;;;5055637;28;20131;-91
2022/04/09 12:22:17;;;;;;;5.05;0.80;;;8.10;99.90;;;;;;5021363;28;20045;-90
2022/04/09 12:24:50;;;;;;;4.68;0.75;;;8.50;99.90;;;;;;5021321;28;20183;-89
2022/04/09 12:27:16;;;;;;;5.20;0.90;;;9.90;99.90;;;;;;5037292;28;20391;-88
2022/04/09 12:30:08;;;;;;;6.75;1.17;;;11.60;99.90;;;;;;5054298;28;20041;-90
2022/04/09 12:32:34;;;;;;;5.65;1.15;;;13.30;99.90;;;;;;5051135;28;20053;-87
2022/04/09 12:35:05;;;;;;;3.83;0.70;;;14.50;99.90;;;;;;5054458;28;20049;-90
2022/04/09 12:37:42;;;;;;;3.25;0.70;;;14.30;99.90;;;;;;5022037;28;20061;-95
2022/04/09 12:40:20;;;;;;;5.13;0.80;;;12.00;99.90;;;;;;5022623;28;20096;-94
2022/04/09 12:42:46;;;;;;;2.17;0.43;;;9.10;99.90;;;;;;5039219;28;20057;-92
2022/04/09 12:45:22;;;;;;;1.08;0.22;;;7.30;99.90;;;;;;5060607;28;20049;-92
2022/04/09 12:47:59;;;;;;;2.63;0.90;;;6.40;99.90;;;;;;5043403;28;20049;-93
2022/04/09 12:50:27;;;;;;;3.33;0.40;;;5.80;99.90;;;;;;5038780;28;20056;-92
2022/04/09 12:52:55;;;;;;;2.83;0.50;;;5.70;99.90;;;;;;5023391;28;20140;-93
2022/04/09 12:55:22;;;;;;;3.40;0.60;;;6.10;99.90;;;;;;5023484;28;20041;-93